createdAt,value
2019-05-29T00:00:05.817Z,13.43
2019-05-29T00:01:09.043Z,13.33
2019-05-29T00:02:05.878Z,13.41
2019-05-29T00:03:06.129Z,13.36
2019-05-29T00:04:06.072Z,13.36
2019-05-29T00:05:05.937Z,13.37
2019-05-29T00:06:06.109Z,13.32
2019-05-29T00:07:06.005Z,13.32
2019-05-29T00:08:06.179Z,13.29
2019-05-29T00:09:05.949Z,13.29
2019-05-29T00:10:06.099Z,13.33
2019-05-29T00:11:05.975Z,13.32
2019-05-29T00:12:07.475Z,13.22
2019-05-29T00:13:06.105Z,13.21
2019-05-29T00:14:18.829Z,13.24
2019-05-29T00:15:06.111Z,13.24
2019-05-29T00:16:06.144Z,13.24
2019-05-29T00:17:06.302Z,13.18
2019-05-29T00:18:06.043Z,13.29
2019-05-29T00:19:04.884Z,13.12
2019-05-29T00:20:06.169Z,13.29
2019-05-29T00:21:05.238Z,13.22
2019-05-29T00:22:06.019Z,13.21
2019-05-29T00:23:06.310Z,13.22
2019-05-29T00:24:04.932Z,13.25
2019-05-29T00:25:04.933Z,13.15
2019-05-29T00:26:04.945Z,13.11
2019-05-29T00:27:05.417Z,13.12
2019-05-29T00:28:04.963Z,13.06
2019-05-29T00:29:05.678Z,13.09
2019-05-29T00:30:04.989Z,13.09
2019-05-29T00:31:05.809Z,13.03
2019-05-29T00:32:04.990Z,13.11
2019-05-29T00:33:05.975Z,13.03
2019-05-29T00:34:05.007Z,12.95
2019-05-29T00:35:05.950Z,13.06
2019-05-29T00:36:06.097Z,12.99
2019-05-29T00:37:06.278Z,12.97
2019-05-29T00:38:06.392Z,12.97
2019-05-29T00:39:05.058Z,12.87
2019-05-29T00:40:05.058Z,12.96
2019-05-29T00:41:05.063Z,12.93
2019-05-29T00:42:05.075Z,12.95
2019-05-29T00:43:13.831Z,12.93
2019-05-29T00:45:11.480Z,12.97
2019-05-29T00:46:19.298Z,13.02
2019-05-29T00:48:16.178Z,13.04
2019-05-29T00:49:24.816Z,13.03
2019-05-29T00:51:23.149Z,13.00
2019-05-29T00:52:23.152Z,13.00
2019-05-29T00:53:31.847Z,13.02
2019-05-29T00:55:28.668Z,13.09
2019-05-29T00:56:28.685Z,13.06
2019-05-29T00:58:23.155Z,13.07
2019-05-29T00:59:23.097Z,13.04
2019-05-29T01:01:28.712Z,13.12
2019-05-29T01:02:28.729Z,13.22
2019-05-29T01:04:34.168Z,13.21
2019-05-29T01:05:34.139Z,13.30
2019-05-29T01:06:34.126Z,13.36
2019-05-29T01:07:34.165Z,13.29
2019-05-29T01:08:34.159Z,13.30
2019-05-29T01:09:34.143Z,13.32
2019-05-29T01:10:34.160Z,13.20
2019-05-29T01:11:34.171Z,13.22
2019-05-29T01:14:05.835Z,13.25
2019-05-29T01:15:05.832Z,13.24
2019-05-29T01:16:05.842Z,13.32
2019-05-29T01:17:05.852Z,13.27
2019-05-29T01:18:05.864Z,13.24
2019-05-29T01:19:05.868Z,13.37
2019-05-29T01:20:05.889Z,13.29
2019-05-29T01:21:05.878Z,13.27
2019-05-29T01:22:05.892Z,13.32
2019-05-29T01:23:05.903Z,13.30
2019-05-29T01:24:05.905Z,13.37
2019-05-29T01:25:05.914Z,13.44
2019-05-29T01:26:05.920Z,13.37
2019-05-29T01:27:05.932Z,13.40
2019-05-29T01:28:05.943Z,13.30
2019-05-29T01:29:05.949Z,13.29
2019-05-29T01:30:05.960Z,13.30
2019-05-29T01:31:05.969Z,13.32
2019-05-29T01:32:05.976Z,13.30
2019-05-29T01:33:05.985Z,13.30
2019-05-29T01:34:05.991Z,13.37
2019-05-29T01:35:05.999Z,13.37
2019-05-29T01:36:06.007Z,13.41
2019-05-29T01:37:06.012Z,13.36
2019-05-29T01:38:06.026Z,13.40
2019-05-29T01:39:06.031Z,13.40
2019-05-29T01:40:19.095Z,13.33
2019-05-29T01:41:06.045Z,13.32
2019-05-29T01:42:06.059Z,13.46
2019-05-29T01:43:06.064Z,13.37
2019-05-29T01:44:06.073Z,13.43
2019-05-29T01:45:08.282Z,13.44
2019-05-29T01:46:06.090Z,13.37
2019-05-29T01:47:06.099Z,13.37
2019-05-29T01:48:06.106Z,13.33
2019-05-29T01:49:06.115Z,13.32
2019-05-29T01:50:06.123Z,13.32
2019-05-29T01:51:06.129Z,13.33
2019-05-29T01:52:06.137Z,13.27
2019-05-29T01:53:06.158Z,13.25
2019-05-29T01:54:06.158Z,13.17
2019-05-29T01:55:06.165Z,13.27
2019-05-29T01:56:06.171Z,13.12
2019-05-29T01:57:06.181Z,13.30
2019-05-29T01:58:06.187Z,13.21
2019-05-29T01:59:06.195Z,13.12
2019-05-29T02:00:06.205Z,13.07
2019-05-29T02:01:06.212Z,13.12
2019-05-29T02:02:06.219Z,13.02
2019-05-29T02:03:06.230Z,13.02
2019-05-29T02:04:06.231Z,13.00
2019-05-29T02:05:06.246Z,12.95
2019-05-29T02:06:06.255Z,13.04
2019-05-29T02:07:06.261Z,12.96
2019-05-29T02:08:06.276Z,13.00
2019-05-29T02:09:06.282Z,12.97
2019-05-29T02:10:06.289Z,13.02
2019-05-29T02:11:06.296Z,12.99
2019-05-29T02:12:06.305Z,12.92
2019-05-29T02:13:06.312Z,12.89
2019-05-29T02:14:06.316Z,12.92
2019-05-29T02:15:20.939Z,12.89
2019-05-29T02:16:06.336Z,13.02
2019-05-29T02:17:06.349Z,12.95
2019-05-29T02:18:06.353Z,13.02
2019-05-29T02:19:06.361Z,13.02
2019-05-29T02:20:06.377Z,13.02
2019-05-29T02:21:06.378Z,13.06
2019-05-29T02:22:06.388Z,13.12
2019-05-29T02:23:06.396Z,13.07
2019-05-29T02:24:06.403Z,13.03
2019-05-29T02:25:06.409Z,13.04
2019-05-29T02:26:06.416Z,12.95
2019-05-29T02:27:06.421Z,12.96
2019-05-29T02:28:06.433Z,13.03
2019-05-29T02:29:06.442Z,12.95
2019-05-29T02:30:06.455Z,12.99
2019-05-29T02:31:06.463Z,13.02
2019-05-29T02:32:06.468Z,13.00
2019-05-29T02:33:06.475Z,13.11
2019-05-29T02:34:07.489Z,13.00
2019-05-29T02:35:06.492Z,13.09
2019-05-29T02:36:06.496Z,12.96
2019-05-29T02:37:06.508Z,12.96
2019-05-29T02:38:06.516Z,13.06
2019-05-29T02:39:06.522Z,13.07
2019-05-29T02:40:06.533Z,13.00
2019-05-29T02:41:06.540Z,12.97
2019-05-29T02:42:06.555Z,13.04
2019-05-29T02:43:06.560Z,12.99
2019-05-29T02:44:06.570Z,12.99
2019-05-29T02:45:06.579Z,12.96
2019-05-29T02:46:06.593Z,12.87
2019-05-29T02:47:06.592Z,12.96
2019-05-29T02:48:06.594Z,12.99
2019-05-29T02:49:06.607Z,12.99
2019-05-29T02:50:06.621Z,13.00
2019-05-29T02:51:06.622Z,13.00
2019-05-29T02:52:06.640Z,13.02
2019-05-29T02:53:06.643Z,12.99
2019-05-29T02:54:06.644Z,13.02
2019-05-29T02:55:06.658Z,12.97
2019-05-29T02:56:06.662Z,12.89
2019-05-29T02:57:06.674Z,12.89
2019-05-29T02:58:06.683Z,12.92
2019-05-29T02:59:06.686Z,12.85
2019-05-29T03:00:06.698Z,13.00
2019-05-29T03:01:06.785Z,12.89
2019-05-29T03:02:06.713Z,12.92
2019-05-29T03:03:06.719Z,12.92
2019-05-29T03:04:06.731Z,12.88
2019-05-29T03:05:06.741Z,12.85
2019-05-29T03:06:06.746Z,12.93
2019-05-29T03:07:06.753Z,12.93
2019-05-29T03:08:06.762Z,12.89
2019-05-29T03:09:06.769Z,12.85
2019-05-29T03:10:06.779Z,12.82
2019-05-29T03:11:06.793Z,12.84
2019-05-29T03:12:06.793Z,12.75
2019-05-29T03:13:06.804Z,12.74
2019-05-29T03:14:06.817Z,12.78
2019-05-29T03:15:06.913Z,12.66
2019-05-29T03:16:11.235Z,12.63
2019-05-29T03:17:06.838Z,12.70
2019-05-29T03:18:06.846Z,12.71
2019-05-29T03:19:06.868Z,12.70
2019-05-29T03:20:06.859Z,12.63
2019-05-29T03:21:06.872Z,12.64
2019-05-29T03:22:06.875Z,12.71
2019-05-29T03:23:06.877Z,12.64
2019-05-29T03:24:06.891Z,12.60
2019-05-29T03:25:06.901Z,12.60
2019-05-29T03:26:06.902Z,12.64
2019-05-29T03:27:06.924Z,12.69
2019-05-29T03:28:06.922Z,12.59
2019-05-29T03:29:06.929Z,12.57
2019-05-29T03:30:06.943Z,12.60
2019-05-29T03:31:06.951Z,12.49
2019-05-29T03:32:13.271Z,12.51
2019-05-29T03:33:06.968Z,12.59
2019-05-29T03:34:06.975Z,12.49
2019-05-29T03:35:06.981Z,12.54
2019-05-29T03:36:06.988Z,12.56
2019-05-29T03:37:06.996Z,12.52
2019-05-29T03:38:06.998Z,12.56
2019-05-29T03:39:07.012Z,12.56
2019-05-29T03:40:07.023Z,12.52
2019-05-29T03:41:07.032Z,12.48
2019-05-29T03:42:07.032Z,12.57
2019-05-29T03:43:07.047Z,12.49
2019-05-29T03:44:10.312Z,12.51
2019-05-29T03:45:07.066Z,12.59
2019-05-29T03:46:07.069Z,12.54
2019-05-29T03:47:07.078Z,12.52
2019-05-29T03:48:07.096Z,12.52
2019-05-29T03:49:07.101Z,12.45
2019-05-29T03:50:07.128Z,12.48
2019-05-29T03:51:07.115Z,12.46
2019-05-29T03:52:07.132Z,12.44
2019-05-29T03:53:07.139Z,12.45
2019-05-29T03:54:07.137Z,12.45
2019-05-29T03:55:07.143Z,12.45
2019-05-29T03:56:07.153Z,12.52
2019-05-29T03:57:07.160Z,12.49
2019-05-29T03:58:07.161Z,12.59
2019-05-29T03:59:07.175Z,12.52
2019-05-29T04:00:07.206Z,12.57
2019-05-29T04:01:07.259Z,12.62
2019-05-29T04:02:07.205Z,12.60
2019-05-29T04:03:07.216Z,12.57
2019-05-29T04:04:07.217Z,12.71
2019-05-29T04:05:07.230Z,12.56
2019-05-29T04:06:07.238Z,12.62
2019-05-29T04:07:07.241Z,12.59
2019-05-29T04:08:07.248Z,12.54
2019-05-29T04:09:07.262Z,12.48
2019-05-29T04:10:07.277Z,12.46
2019-05-29T04:11:07.328Z,12.45
2019-05-29T04:12:07.281Z,12.48
2019-05-29T04:13:07.288Z,12.45
2019-05-29T04:14:07.296Z,12.44
2019-05-29T04:15:07.304Z,12.39
2019-05-29T04:16:07.321Z,12.41
2019-05-29T04:17:07.333Z,12.41
2019-05-29T04:18:07.328Z,12.45
2019-05-29T04:19:07.345Z,12.49
2019-05-29T04:20:07.345Z,12.49
2019-05-29T04:21:07.355Z,12.54
2019-05-29T04:22:07.359Z,12.57
2019-05-29T04:23:07.370Z,12.59
2019-05-29T04:24:07.379Z,12.56
2019-05-29T04:25:07.387Z,12.57
2019-05-29T04:26:07.391Z,12.52
2019-05-29T04:27:07.398Z,12.44
2019-05-29T04:28:07.410Z,12.39
2019-05-29T04:29:07.418Z,12.49
2019-05-29T04:30:07.429Z,12.57
2019-05-29T04:31:07.445Z,12.52
2019-05-29T04:32:07.439Z,12.51
2019-05-29T04:33:07.451Z,12.46
2019-05-29T04:34:07.461Z,12.48
2019-05-29T04:35:07.467Z,12.46
2019-05-29T04:36:07.475Z,12.45
2019-05-29T04:37:07.612Z,12.44
2019-05-29T04:38:07.489Z,12.46
2019-05-29T04:39:07.497Z,12.45
2019-05-29T04:40:07.509Z,12.45
2019-05-29T04:41:07.514Z,12.45
2019-05-29T04:42:07.520Z,12.51
2019-05-29T04:43:07.531Z,12.56
2019-05-29T04:44:07.543Z,12.59
2019-05-29T04:45:07.548Z,12.60
2019-05-29T04:46:07.558Z,12.57
2019-05-29T04:47:11.528Z,12.66
2019-05-29T04:48:07.567Z,12.57
2019-05-29T04:49:07.580Z,12.64
2019-05-29T04:50:07.585Z,12.63
2019-05-29T04:51:07.591Z,12.69
2019-05-29T04:52:07.613Z,12.67
2019-05-29T04:53:07.607Z,12.66
2019-05-29T04:54:07.620Z,12.74
2019-05-29T04:55:07.625Z,12.74
2019-05-29T04:56:07.634Z,12.85
2019-05-29T04:57:07.643Z,12.87
2019-05-29T04:58:07.661Z,12.89
2019-05-29T04:59:07.658Z,12.97
2019-05-29T05:00:07.669Z,12.89
2019-05-29T05:01:07.697Z,12.97
2019-05-29T05:02:07.687Z,12.93
2019-05-29T05:03:07.692Z,13.00
2019-05-29T05:04:07.700Z,12.97
2019-05-29T05:05:07.707Z,13.00
2019-05-29T05:06:07.719Z,13.03
2019-05-29T05:07:07.726Z,12.96
2019-05-29T05:08:07.736Z,13.07
2019-05-29T05:09:07.740Z,13.00
2019-05-29T05:10:07.752Z,13.04
2019-05-29T05:11:07.754Z,12.96
2019-05-29T05:12:07.765Z,13.11
2019-05-29T05:13:07.771Z,13.03
2019-05-29T05:14:07.782Z,13.06
2019-05-29T05:15:07.790Z,13.20
2019-05-29T05:16:07.801Z,13.22
2019-05-29T05:17:07.819Z,13.20
2019-05-29T05:18:07.816Z,13.21
2019-05-29T05:19:07.822Z,13.37
2019-05-29T05:20:07.830Z,13.36
2019-05-29T05:21:07.837Z,13.44
2019-05-29T05:22:07.847Z,13.55
2019-05-29T05:23:07.856Z,13.52
2019-05-29T05:24:07.870Z,13.59
2019-05-29T05:25:07.880Z,13.59
2019-05-29T05:26:07.886Z,13.59
2019-05-29T05:27:07.886Z,13.74
2019-05-29T05:28:07.896Z,13.73
2019-05-29T05:29:07.910Z,13.83
2019-05-29T05:30:09.056Z,13.76
2019-05-29T05:31:07.932Z,13.77
2019-05-29T05:32:07.932Z,13.95
2019-05-29T05:33:07.939Z,14.02
2019-05-29T05:34:07.949Z,13.99
2019-05-29T05:35:07.955Z,13.99
2019-05-29T05:36:07.965Z,14.09
2019-05-29T05:37:07.971Z,14.12
2019-05-29T05:38:07.981Z,14.21
2019-05-29T05:39:07.988Z,14.20
2019-05-29T05:40:07.997Z,14.27
2019-05-29T05:41:08.009Z,14.24
2019-05-29T05:42:08.014Z,14.31
2019-05-29T05:43:22.863Z,14.37
2019-05-29T05:44:08.035Z,14.44
2019-05-29T05:45:08.038Z,14.44
2019-05-29T05:46:08.046Z,14.42
2019-05-29T05:47:08.054Z,14.29
2019-05-29T05:48:08.067Z,14.32
2019-05-29T05:49:08.078Z,14.32
2019-05-29T05:50:08.083Z,14.38
2019-05-29T05:51:08.092Z,14.43
2019-05-29T05:52:08.096Z,14.43
2019-05-29T05:53:08.114Z,14.52
2019-05-29T05:54:08.116Z,14.53
2019-05-29T05:55:08.127Z,14.50
2019-05-29T05:56:08.128Z,14.54
2019-05-29T05:57:08.144Z,14.57
2019-05-29T05:58:08.158Z,14.65
2019-05-29T05:59:08.162Z,14.83
2019-05-29T06:00:08.166Z,14.72
2019-05-29T06:01:08.200Z,14.72
2019-05-29T06:02:08.184Z,14.83
2019-05-29T06:03:08.200Z,14.91
2019-05-29T06:04:08.203Z,14.95
2019-05-29T06:05:08.211Z,14.98
2019-05-29T06:06:08.219Z,14.98
2019-05-29T06:07:08.228Z,14.93
2019-05-29T06:08:08.238Z,14.98
2019-05-29T06:09:08.250Z,15.03
2019-05-29T06:10:08.260Z,14.98
2019-05-29T06:11:08.264Z,15.01
2019-05-29T06:12:08.272Z,15.11
2019-05-29T06:13:08.279Z,15.17
2019-05-29T06:14:08.288Z,15.12
2019-05-29T06:15:08.306Z,15.21
2019-05-29T06:16:08.306Z,15.24
2019-05-29T06:17:08.316Z,15.26
2019-05-29T06:18:20.687Z,15.26
2019-05-29T06:19:08.341Z,15.28
2019-05-29T06:20:08.348Z,15.31
2019-05-29T06:21:08.353Z,15.28
2019-05-29T06:22:08.367Z,15.26
2019-05-29T06:23:08.369Z,15.26
2019-05-29T06:24:08.381Z,15.26
2019-05-29T06:25:08.401Z,15.27
2019-05-29T06:26:08.398Z,15.24
2019-05-29T06:27:08.405Z,15.27
2019-05-29T06:28:08.414Z,15.27
2019-05-29T06:29:08.425Z,15.35
2019-05-29T06:30:08.429Z,15.42
2019-05-29T06:31:08.437Z,15.51
2019-05-29T06:32:08.444Z,15.52
2019-05-29T06:33:08.463Z,15.59
2019-05-29T06:34:08.465Z,15.70
2019-05-29T06:35:08.471Z,15.76
2019-05-29T06:36:08.486Z,15.86
2019-05-29T06:37:08.499Z,15.86
2019-05-29T06:38:08.502Z,15.94
2019-05-29T06:39:08.506Z,16.03
2019-05-29T06:40:08.522Z,16.07
2019-05-29T06:41:08.526Z,16.11
2019-05-29T06:42:08.536Z,16.16
2019-05-29T06:43:11.809Z,16.22
2019-05-29T06:44:08.554Z,16.30
2019-05-29T06:45:08.831Z,16.23
2019-05-29T06:46:08.586Z,16.20
2019-05-29T06:47:08.583Z,16.20
2019-05-29T06:48:08.591Z,16.14
2019-05-29T06:49:08.599Z,16.23
2019-05-29T06:50:08.608Z,16.18
2019-05-29T06:51:08.613Z,16.18
2019-05-29T06:52:09.336Z,16.14
2019-05-29T06:53:08.641Z,16.09
2019-05-29T06:54:08.649Z,16.07
2019-05-29T06:55:08.656Z,15.99
2019-05-29T06:56:08.700Z,15.86
2019-05-29T06:57:08.680Z,15.97
2019-05-29T06:58:08.691Z,15.88
2019-05-29T06:59:08.693Z,15.97
2019-05-29T07:00:08.704Z,16.00
2019-05-29T07:01:08.740Z,16.09
2019-05-29T07:02:08.719Z,16.09
2019-05-29T07:03:08.721Z,16.18
2019-05-29T07:04:12.271Z,16.16
2019-05-29T07:05:08.750Z,16.18
2019-05-29T07:06:08.781Z,16.14
2019-05-29T07:07:08.768Z,16.26
2019-05-29T07:08:19.135Z,16.26
2019-05-29T07:09:08.785Z,16.35
2019-05-29T07:10:08.798Z,16.35
2019-05-29T07:11:08.803Z,16.41
2019-05-29T07:12:08.817Z,16.35
2019-05-29T07:13:08.822Z,16.50
2019-05-29T07:14:08.854Z,16.45
2019-05-29T07:15:08.846Z,16.49
2019-05-29T07:16:08.846Z,16.65
2019-05-29T07:17:08.913Z,16.63
2019-05-29T07:18:08.869Z,16.58
2019-05-29T07:19:24.568Z,16.62
2019-05-29T07:20:08.890Z,16.60
2019-05-29T07:21:08.901Z,16.48
2019-05-29T07:22:08.901Z,16.53
2019-05-29T07:23:08.921Z,16.48
2019-05-29T07:24:08.923Z,16.38
2019-05-29T07:25:08.932Z,16.42
2019-05-29T07:26:08.946Z,16.42
2019-05-29T07:27:13.407Z,16.52
2019-05-29T07:28:08.959Z,16.48
2019-05-29T07:29:08.972Z,16.60
2019-05-29T07:30:08.979Z,16.58
2019-05-29T07:31:08.997Z,16.70
2019-05-29T07:32:08.998Z,16.78
2019-05-29T07:33:11.462Z,16.85
2019-05-29T07:34:09.013Z,16.78
2019-05-29T07:35:09.029Z,16.78
2019-05-29T07:36:09.032Z,16.67
2019-05-29T07:37:09.045Z,16.70
2019-05-29T07:38:09.055Z,16.70
2019-05-29T07:39:09.063Z,16.78
2019-05-29T07:40:09.071Z,16.81
2019-05-29T07:41:09.083Z,16.74
2019-05-29T07:42:09.095Z,16.81
2019-05-29T07:43:09.121Z,16.74
2019-05-29T07:44:09.117Z,16.62
2019-05-29T07:45:09.120Z,16.70
2019-05-29T07:46:09.126Z,16.60
2019-05-29T07:47:10.000Z,16.53
2019-05-29T07:48:09.148Z,16.49
2019-05-29T07:49:09.160Z,16.55
2019-05-29T07:50:09.167Z,16.38
2019-05-29T07:51:09.177Z,16.25
2019-05-29T07:52:09.188Z,16.18
2019-05-29T07:53:09.199Z,16.03
2019-05-29T07:54:09.205Z,16.01
2019-05-29T07:55:09.240Z,15.97
2019-05-29T07:56:21.648Z,15.92
2019-05-29T07:57:09.233Z,15.76
2019-05-29T07:58:09.245Z,15.79
2019-05-29T07:59:09.254Z,15.79
2019-05-29T08:00:09.263Z,15.76
2019-05-29T08:01:13.557Z,15.72
2019-05-29T08:02:09.280Z,15.78
2019-05-29T08:03:09.290Z,15.68
2019-05-29T08:04:09.300Z,15.74
2019-05-29T08:05:09.309Z,15.78
2019-05-29T08:06:09.318Z,15.82
2019-05-29T08:07:09.330Z,15.84
2019-05-29T08:08:09.341Z,15.75
2019-05-29T08:09:09.346Z,15.72
2019-05-29T08:10:09.355Z,15.85
2019-05-29T08:11:09.366Z,15.79
2019-05-29T08:12:09.374Z,15.84
2019-05-29T08:13:09.384Z,15.92
2019-05-29T08:14:09.388Z,15.93
2019-05-29T08:15:09.398Z,15.94
2019-05-29T08:16:09.411Z,15.96
2019-05-29T08:17:09.419Z,15.86
2019-05-29T08:18:09.426Z,15.86
2019-05-29T08:19:09.444Z,15.97
2019-05-29T08:20:09.460Z,15.96
2019-05-29T08:21:09.455Z,15.94
2019-05-29T08:22:09.469Z,16.00
2019-05-29T08:23:09.548Z,16.00
2019-05-29T08:24:09.486Z,15.94
2019-05-29T08:25:09.497Z,16.06
2019-05-29T08:26:09.503Z,16.03
2019-05-29T08:27:09.513Z,16.15
2019-05-29T08:28:09.523Z,16.27
2019-05-29T08:29:09.525Z,16.40
2019-05-29T08:30:09.546Z,16.50
2019-05-29T08:31:09.543Z,16.59
2019-05-29T08:32:09.562Z,16.53
2019-05-29T08:33:09.567Z,16.63
2019-05-29T08:34:09.576Z,16.73
2019-05-29T08:35:09.584Z,16.63
2019-05-29T08:36:09.606Z,16.62
2019-05-29T08:37:09.607Z,16.71
2019-05-29T08:38:09.614Z,16.78
2019-05-29T08:39:09.623Z,16.89
2019-05-29T08:40:09.641Z,16.83
2019-05-29T08:41:09.651Z,16.89
2019-05-29T08:42:22.753Z,17.00
2019-05-29T08:43:09.663Z,17.08
2019-05-29T08:44:09.674Z,17.22
2019-05-29T08:45:09.705Z,17.23
2019-05-29T08:46:09.690Z,17.22
2019-05-29T08:47:11.004Z,17.17
2019-05-29T08:48:09.705Z,17.17
2019-05-29T08:49:09.723Z,17.22
2019-05-29T08:50:17.863Z,17.14
2019-05-29T08:51:09.740Z,17.22
2019-05-29T08:52:12.319Z,17.22
2019-05-29T08:53:09.759Z,17.25
2019-05-29T08:54:23.381Z,17.17
2019-05-29T08:55:09.778Z,17.26
2019-05-29T08:56:09.793Z,17.14
2019-05-29T08:57:09.798Z,17.29
2019-05-29T08:58:09.806Z,17.36
2019-05-29T08:59:09.818Z,17.46
2019-05-29T09:00:09.823Z,17.48
2019-05-29T09:01:09.839Z,17.43
2019-05-29T09:02:09.854Z,17.51
2019-05-29T09:03:09.857Z,17.30
2019-05-29T09:04:09.868Z,17.30
2019-05-29T09:05:09.878Z,17.32
2019-05-29T09:06:13.357Z,17.47
2019-05-29T09:07:09.895Z,17.50
2019-05-29T09:08:09.907Z,17.41
2019-05-29T09:09:09.910Z,17.48
2019-05-29T09:10:09.926Z,17.63
2019-05-29T09:11:09.935Z,17.67
2019-05-29T09:12:09.948Z,17.57
2019-05-29T09:13:09.956Z,17.62
2019-05-29T09:14:09.968Z,17.62
2019-05-29T09:15:10.430Z,17.64
2019-05-29T09:16:09.982Z,17.70
2019-05-29T09:17:09.997Z,17.85
2019-05-29T09:18:10.007Z,17.76
2019-05-29T09:19:10.019Z,17.82
2019-05-29T09:20:26.210Z,17.91
2019-05-29T09:21:10.038Z,17.89
2019-05-29T09:22:10.049Z,17.89
2019-05-29T09:23:10.059Z,17.95
2019-05-29T09:24:10.118Z,18.02
2019-05-29T09:25:10.078Z,18.02
2019-05-29T09:26:15.784Z,18.02
2019-05-29T09:27:10.097Z,17.87
2019-05-29T09:28:10.110Z,17.88
2019-05-29T09:29:10.119Z,17.99
2019-05-29T09:30:10.132Z,17.95
2019-05-29T09:31:10.137Z,18.03
2019-05-29T09:32:10.155Z,18.12
2019-05-29T09:33:10.162Z,18.07
2019-05-29T09:34:10.166Z,18.21
2019-05-29T09:35:10.180Z,18.39
2019-05-29T09:36:10.190Z,18.39
2019-05-29T09:37:10.276Z,18.34
2019-05-29T09:38:10.209Z,18.37
2019-05-29T09:39:10.218Z,18.50
2019-05-29T09:40:10.233Z,18.47
2019-05-29T09:41:10.242Z,18.39
2019-05-29T09:42:10.257Z,18.46
2019-05-29T09:43:10.266Z,18.40
2019-05-29T09:44:26.787Z,18.49
2019-05-29T09:45:10.319Z,18.47
2019-05-29T09:46:10.294Z,18.39
2019-05-29T09:47:10.308Z,18.27
2019-05-29T09:48:10.317Z,18.31
2019-05-29T09:49:10.323Z,18.19
2019-05-29T09:50:10.333Z,18.21
2019-05-29T09:51:20.774Z,18.19
2019-05-29T09:52:10.356Z,18.13
2019-05-29T09:53:10.365Z,18.21
2019-05-29T09:54:10.428Z,18.13
2019-05-29T09:55:10.385Z,18.09
2019-05-29T09:56:10.401Z,18.06
2019-05-29T09:57:10.407Z,18.06
2019-05-29T09:58:10.424Z,18.07
2019-05-29T09:59:10.427Z,18.13
2019-05-29T10:00:10.457Z,18.10
2019-05-29T10:01:22.718Z,18.15
2019-05-29T10:02:10.468Z,18.19
2019-05-29T10:03:10.467Z,18.25
2019-05-29T10:04:10.490Z,18.36
2019-05-29T10:05:10.488Z,18.31
2019-05-29T10:06:10.713Z,18.40
2019-05-29T10:07:10.510Z,18.58
2019-05-29T10:08:10.519Z,18.61
2019-05-29T10:09:10.530Z,18.74
2019-05-29T10:10:10.539Z,18.82
2019-05-29T10:11:11.215Z,18.91
2019-05-29T10:12:10.565Z,18.98
2019-05-29T10:13:10.573Z,18.79
2019-05-29T10:14:10.593Z,18.86
2019-05-29T10:15:10.596Z,18.83
2019-05-29T10:16:10.605Z,18.94
2019-05-29T10:17:12.682Z,18.87
2019-05-29T10:18:30.518Z,18.84
2019-05-29T10:19:10.634Z,18.76
2019-05-29T10:20:10.648Z,18.68
2019-05-29T10:21:10.659Z,18.77
2019-05-29T10:22:10.664Z,18.74
2019-05-29T10:23:10.675Z,18.74
2019-05-29T10:24:10.690Z,18.64
2019-05-29T10:25:10.705Z,18.57
2019-05-29T10:26:10.708Z,18.58
2019-05-29T10:27:10.723Z,18.47
2019-05-29T10:28:10.729Z,18.37
2019-05-29T10:29:10.906Z,18.36
2019-05-29T10:30:10.753Z,18.33
2019-05-29T10:31:10.762Z,18.40
2019-05-29T10:32:10.771Z,18.50
2019-05-29T10:33:10.782Z,18.40
2019-05-29T10:34:10.797Z,18.42
2019-05-29T10:35:10.805Z,18.46
2019-05-29T10:36:10.816Z,18.47
2019-05-29T10:37:10.827Z,18.39
2019-05-29T10:38:10.843Z,18.27
2019-05-29T10:39:12.984Z,18.37
2019-05-29T10:40:10.862Z,18.27
2019-05-29T10:41:10.869Z,18.13
2019-05-29T10:42:10.880Z,18.17
2019-05-29T10:43:10.893Z,18.15
2019-05-29T10:44:12.822Z,18.17
2019-05-29T10:45:10.911Z,18.17
2019-05-29T10:46:10.923Z,18.09
2019-05-29T10:47:10.929Z,18.12
2019-05-29T10:48:10.982Z,18.19
2019-05-29T10:49:10.960Z,18.06
2019-05-29T10:50:11.135Z,17.91
2019-05-29T10:51:10.977Z,17.82
2019-05-29T10:52:16.573Z,17.64
2019-05-29T10:53:10.994Z,17.81
2019-05-29T10:54:11.004Z,17.79
2019-05-29T10:55:11.011Z,17.89
2019-05-29T10:56:11.027Z,17.89
2019-05-29T10:57:11.037Z,17.89
2019-05-29T10:58:11.053Z,17.82
2019-05-29T10:59:11.056Z,17.82
2019-05-29T11:00:11.062Z,17.82
2019-05-29T11:01:11.082Z,17.91
2019-05-29T11:02:11.084Z,18.00
2019-05-29T11:03:11.099Z,17.99
2019-05-29T11:04:11.109Z,18.07
2019-05-29T11:05:11.114Z,18.07
2019-05-29T11:06:11.129Z,18.10
2019-05-29T11:07:11.139Z,18.24
2019-05-29T11:08:11.152Z,18.34
2019-05-29T11:09:11.161Z,18.40
2019-05-29T11:10:13.465Z,18.55
2019-05-29T11:11:11.185Z,18.55
2019-05-29T11:12:11.189Z,18.49
2019-05-29T11:13:11.203Z,18.72
2019-05-29T11:14:11.214Z,18.90
2019-05-29T11:15:20.947Z,18.97
2019-05-29T11:16:11.242Z,19.20
2019-05-29T11:17:11.244Z,19.25
2019-05-29T11:18:11.262Z,19.50
2019-05-29T11:19:11.270Z,19.58
2019-05-29T11:20:11.282Z,19.78
2019-05-29T11:21:11.287Z,20.06
2019-05-29T11:22:25.847Z,20.23
2019-05-29T11:23:11.306Z,20.50
2019-05-29T11:24:11.325Z,20.39
2019-05-29T11:25:22.379Z,20.66
2019-05-29T11:26:11.342Z,20.96
2019-05-29T11:27:11.354Z,21.53
2019-05-29T11:28:11.391Z,21.97
2019-05-29T11:29:11.381Z,22.74
2019-05-29T11:30:11.725Z,23.20
2019-05-29T11:31:11.456Z,24.00
2019-05-29T11:32:11.445Z,24.79
2019-05-29T11:33:11.435Z,25.47
2019-05-29T11:34:11.453Z,26.29
2019-05-29T11:35:11.461Z,26.79
2019-05-29T11:36:13.590Z,27.24
2019-05-29T11:37:11.502Z,27.86
2019-05-29T11:38:11.517Z,28.25
2019-05-29T11:39:11.525Z,28.31
2019-05-29T11:40:11.540Z,28.41
2019-05-29T11:41:25.305Z,28.62
2019-05-29T11:42:26.383Z,27.89
2019-05-29T11:43:11.599Z,27.51
2019-05-29T11:44:11.614Z,27.10
2019-05-29T11:45:11.631Z,26.61
2019-05-29T11:46:11.646Z,26.06
2019-05-29T11:47:11.676Z,25.77
2019-05-29T11:48:11.686Z,25.82
2019-05-29T11:49:11.703Z,25.87
2019-05-29T11:50:19.355Z,26.29
2019-05-29T11:51:11.733Z,25.82
2019-05-29T11:52:23.285Z,26.04
2019-05-29T11:53:11.770Z,25.86
2019-05-29T11:54:11.781Z,25.25
2019-05-29T11:55:11.797Z,24.73
2019-05-29T11:56:11.820Z,24.50
2019-05-29T11:57:11.833Z,24.41
2019-05-29T11:58:29.764Z,24.76
2019-05-29T11:59:11.866Z,24.35
2019-05-29T12:00:19.606Z,24.22
2019-05-29T12:01:11.899Z,23.98
2019-05-29T12:02:11.916Z,24.37
2019-05-29T12:03:11.934Z,24.64
2019-05-29T12:04:25.681Z,24.80
2019-05-29T12:05:11.960Z,25.22
2019-05-29T12:06:11.981Z,25.99
2019-05-29T12:07:11.995Z,26.94
2019-05-29T12:08:12.011Z,27.01
2019-05-29T12:09:12.030Z,26.61
2019-05-29T12:10:12.084Z,26.31
2019-05-29T12:11:12.059Z,25.97
2019-05-29T12:12:12.076Z,25.09
2019-05-29T12:13:12.098Z,24.50
2019-05-29T12:14:12.174Z,23.82
2019-05-29T12:15:15.646Z,23.26
2019-05-29T12:16:12.150Z,22.78
2019-05-29T12:17:12.158Z,22.29
2019-05-29T12:18:23.538Z,22.04
2019-05-29T12:19:12.189Z,21.66
2019-05-29T12:20:26.960Z,21.34
2019-05-29T12:21:12.211Z,21.02
2019-05-29T12:22:12.233Z,20.74
2019-05-29T12:23:25.218Z,20.50
2019-05-29T12:24:12.261Z,20.27
2019-05-29T12:25:12.278Z,20.08
2019-05-29T12:26:21.953Z,19.87
2019-05-29T12:27:12.301Z,19.55
2019-05-29T12:28:12.316Z,19.54
2019-05-29T12:29:12.347Z,19.42
2019-05-29T12:30:12.345Z,19.38
2019-05-29T12:31:12.367Z,19.38
2019-05-29T12:32:12.821Z,19.43
2019-05-29T12:33:12.382Z,19.38
2019-05-29T12:34:19.108Z,19.28
2019-05-29T12:35:12.406Z,19.28
2019-05-29T12:36:12.419Z,19.25
2019-05-29T12:37:12.433Z,19.29
2019-05-29T12:38:12.446Z,19.24
2019-05-29T12:39:12.493Z,19.14
2019-05-29T12:40:12.475Z,19.20
2019-05-29T12:41:12.480Z,19.21
2019-05-29T12:42:12.494Z,19.15
2019-05-29T12:43:26.341Z,19.18
2019-05-29T12:44:12.519Z,19.17
2019-05-29T12:45:12.532Z,19.35
2019-05-29T12:46:12.544Z,19.35
2019-05-29T12:47:12.558Z,19.48
2019-05-29T12:48:15.074Z,19.61
2019-05-29T12:49:12.576Z,19.72
2019-05-29T12:50:12.591Z,20.03
2019-05-29T12:51:12.602Z,20.15
2019-05-29T12:52:12.634Z,20.41
2019-05-29T12:53:28.766Z,20.47
2019-05-29T12:54:12.678Z,20.69
2019-05-29T12:55:12.652Z,20.72
2019-05-29T12:56:12.656Z,20.93
2019-05-29T12:57:12.675Z,21.23
2019-05-29T12:58:12.685Z,21.53
2019-05-29T12:59:12.697Z,22.37
2019-05-29T13:00:12.719Z,22.93
2019-05-29T13:01:12.725Z,24.00